createdAt,value
2022-10-17T00:04:35.330Z,99717.20
2022-10-17T00:07:43.940Z,99713.00
2022-10-17T00:11:01.992Z,99718.40
2022-10-17T00:14:09.899Z,99713.00
2022-10-17T00:17:17.943Z,99711.20
2022-10-17T00:20:26.179Z,99718.20
2022-10-17T00:23:34.772Z,99718.40
2022-10-17T00:26:42.557Z,99717.80
2022-10-17T00:29:54.948Z,99715.00
2022-10-17T00:33:02.804Z,99721.00
2022-10-17T00:36:14.453Z,99718.60
2022-10-17T00:39:22.256Z,99712.40
2022-10-17T00:42:30.877Z,99717.00
2022-10-17T00:45:39.107Z,99713.00
2022-10-17T00:48:49.714Z,99712.00
2022-10-17T00:52:01.724Z,99712.80
2022-10-17T00:55:18.213Z,99711.40
2022-10-17T00:58:26.478Z,99711.80
2022-10-17T01:01:34.571Z,99710.20
2022-10-17T01:04:46.393Z,99705.20
2022-10-17T01:07:56.502Z,99708.60
2022-10-17T01:11:20.779Z,99711.20
2022-10-17T01:14:49.520Z,99717.00
2022-10-17T01:18:14.121Z,99713.80
2022-10-17T01:21:51.088Z,99713.60
2022-10-17T01:25:30.649Z,99709.40
2022-10-17T01:29:26.907Z,99704.40
2022-10-17T01:32:41.515Z,99706.00
2022-10-17T01:36:01.714Z,99709.80
2022-10-17T01:39:31.803Z,99710.20
2022-10-17T01:42:49.503Z,99716.00
2022-10-17T01:46:04.387Z,99711.60
2022-10-17T01:49:15.699Z,99711.00
2022-10-17T01:52:29.078Z,99708.00
2022-10-17T01:55:41.103Z,99708.60
2022-10-17T01:58:55.166Z,99706.40
2022-10-17T02:02:04.694Z,99705.20
2022-10-17T02:05:13.723Z,99707.40
2022-10-17T02:08:31.014Z,99710.00
2022-10-17T02:11:38.958Z,99711.20
2022-10-17T02:15:04.125Z,99717.20
2022-10-17T02:18:32.349Z,99708.80
2022-10-17T02:21:52.699Z,99716.60
2022-10-17T02:25:11.033Z,99718.00
2022-10-17T02:28:32.117Z,99721.40
2022-10-17T02:31:46.771Z,99719.80
2022-10-17T02:35:00.021Z,99723.20
2022-10-17T02:38:13.384Z,99722.60
2022-10-17T02:41:25.111Z,99721.20
2022-10-17T02:44:34.909Z,99719.00
2022-10-17T02:47:57.646Z,99726.80
2022-10-17T02:51:17.320Z,99723.60
2022-10-17T02:54:39.428Z,99719.20
2022-10-17T02:57:54.119Z,99722.00
2022-10-17T03:01:03.709Z,99719.80
2022-10-17T03:04:15.980Z,99728.20
2022-10-17T03:07:24.282Z,99730.00
2022-10-17T03:10:32.148Z,99729.40
2022-10-17T03:13:40.370Z,99732.20
2022-10-17T03:16:48.357Z,99732.00
2022-10-17T03:19:56.557Z,99731.80
2022-10-17T03:23:05.242Z,99734.80
2022-10-17T03:26:13.694Z,99737.20
2022-10-17T03:29:21.566Z,99742.40
2022-10-17T03:32:29.773Z,99750.40
2022-10-17T03:35:41.471Z,99756.40
2022-10-17T03:38:50.938Z,99761.40
2022-10-17T03:41:59.253Z,99758.20
2022-10-17T03:45:08.052Z,99757.40
2022-10-17T03:48:15.880Z,99760.80
2022-10-17T03:51:23.844Z,99764.80
2022-10-17T03:54:32.016Z,99764.60
2022-10-17T03:57:43.460Z,99771.40
2022-10-17T04:00:53.492Z,99776.60
2022-10-17T04:04:02.004Z,99779.60
2022-10-17T04:07:10.360Z,99779.80
2022-10-17T04:10:18.990Z,99781.80
2022-10-17T04:13:26.895Z,99783.00
2022-10-17T04:16:34.996Z,99784.40
2022-10-17T04:19:43.003Z,99783.20
2022-10-17T04:22:51.221Z,99783.60
2022-10-17T04:26:03.528Z,99784.00
2022-10-17T04:29:11.457Z,99787.20
2022-10-17T04:32:19.534Z,99788.00
2022-10-17T04:35:33.173Z,99784.60
2022-10-17T04:38:43.223Z,99791.20
2022-10-17T04:41:56.326Z,99796.60
2022-10-17T04:45:10.395Z,99795.80
2022-10-17T04:48:20.443Z,99802.60
2022-10-17T04:51:32.017Z,99798.20
2022-10-17T04:54:41.127Z,99796.40
2022-10-17T04:57:56.224Z,99798.60
2022-10-17T05:01:18.158Z,99798.60
2022-10-17T05:04:32.908Z,99806.80
2022-10-17T05:07:49.095Z,99811.00
2022-10-17T05:11:00.845Z,99811.40
2022-10-17T05:14:14.372Z,99815.80
2022-10-17T05:17:26.987Z,99814.00
2022-10-17T05:20:35.982Z,99825.00
2022-10-17T05:23:43.911Z,99827.40
2022-10-17T05:26:53.400Z,99826.60
2022-10-17T05:30:01.213Z,99829.00
2022-10-17T05:33:09.446Z,99834.80
2022-10-17T05:36:17.281Z,99834.60
2022-10-17T05:39:26.668Z,99838.60
2022-10-17T05:42:34.470Z,99845.60
2022-10-17T05:45:42.803Z,99842.00
2022-10-17T05:48:50.896Z,99845.80
2022-10-17T05:51:58.940Z,99848.80
2022-10-17T05:55:08.993Z,99855.00
2022-10-17T05:58:22.128Z,99860.60
2022-10-17T06:01:35.193Z,99865.60
2022-10-17T06:04:46.044Z,99871.40
2022-10-17T06:07:56.003Z,99876.40
2022-10-17T06:11:09.879Z,99887.20
2022-10-17T06:14:18.706Z,99891.40
2022-10-17T06:17:26.763Z,99896.20
2022-10-17T06:20:34.780Z,99900.20
2022-10-17T06:23:42.765Z,99905.40
2022-10-17T06:26:51.353Z,99911.00
2022-10-17T06:29:59.941Z,99910.60
2022-10-17T06:33:08.007Z,99913.60
2022-10-17T06:36:18.215Z,99913.80
2022-10-17T06:39:33.770Z,99916.00
2022-10-17T06:42:42.566Z,99921.20
2022-10-17T06:45:52.046Z,99924.00
2022-10-17T06:49:00.147Z,99924.60
2022-10-17T06:52:08.257Z,99927.80
2022-10-17T06:55:19.608Z,99935.80
2022-10-17T06:58:31.547Z,99944.40
2022-10-17T07:01:41.887Z,99942.60
2022-10-17T07:04:54.604Z,99945.40
2022-10-17T07:08:03.026Z,99950.80
2022-10-17T07:11:20.108Z,99954.40
2022-10-17T07:14:32.346Z,99959.20
2022-10-17T07:17:40.317Z,99957.60
2022-10-17T07:20:56.165Z,99962.60
2022-10-17T07:24:03.982Z,99967.20
2022-10-17T07:27:11.997Z,99964.80
2022-10-17T07:30:20.645Z,99971.60
2022-10-17T07:33:28.686Z,99974.20
2022-10-17T07:36:36.743Z,99973.00
2022-10-17T07:39:44.901Z,99974.40
2022-10-17T07:42:53.424Z,99975.60
2022-10-17T07:46:02.180Z,99976.80
2022-10-17T07:49:09.958Z,99978.40
2022-10-17T07:52:19.390Z,99979.80
2022-10-17T07:55:27.413Z,99980.60
2022-10-17T07:58:35.819Z,99981.60
2022-10-17T08:01:46.743Z,99987.20
2022-10-17T08:04:55.363Z,99993.20
2022-10-17T08:08:03.352Z,99995.20
2022-10-17T08:11:13.707Z,99996.40
2022-10-17T08:14:21.800Z,99995.20
2022-10-17T08:17:29.841Z,99991.00
2022-10-17T08:20:38.161Z,99996.20
2022-10-17T08:23:46.148Z,99993.40
2022-10-17T08:26:54.018Z,99992.40
2022-10-17T08:30:02.595Z,99992.80
2022-10-17T08:33:10.447Z,99992.80
2022-10-17T08:36:21.421Z,99991.00
2022-10-17T08:39:29.606Z,99996.60
2022-10-17T08:42:57.849Z,100002.20
2022-10-17T08:46:10.185Z,100003.20
2022-10-17T08:49:27.655Z,100001.80
2022-10-17T08:52:42.884Z,100005.60
2022-10-17T08:55:54.336Z,100004.20
2022-10-17T08:59:02.755Z,100005.20
2022-10-17T09:02:32.410Z,99998.20
2022-10-17T09:05:47.665Z,99995.60
2022-10-17T09:09:12.766Z,99997.40
2022-10-17T09:12:25.920Z,99994.20
2022-10-17T09:15:50.736Z,99998.00
2022-10-17T09:19:10.377Z,99998.80
2022-10-17T09:22:19.482Z,99996.80
2022-10-17T09:25:29.948Z,99990.20
2022-10-17T09:28:41.842Z,99987.80
2022-10-17T09:35:06.273Z,99993.80
2022-10-17T09:38:22.047Z,99992.60
2022-10-17T09:41:45.529Z,99993.40
2022-10-17T09:45:16.571Z,99991.00
2022-10-17T09:48:33.111Z,99993.80
2022-10-17T09:51:42.715Z,99995.60
2022-10-17T09:54:51.792Z,99996.40
2022-10-17T09:58:03.578Z,99996.00
2022-10-17T10:01:26.654Z,99998.40
2022-10-17T10:04:47.064Z,100002.40
2022-10-17T10:08:14.684Z,99995.60
2022-10-17T10:11:27.653Z,99999.40
2022-10-17T10:14:39.806Z,99997.20
2022-10-17T10:17:48.048Z,99995.40
2022-10-17T10:21:13.632Z,99992.60
2022-10-17T10:24:22.054Z,99985.80
2022-10-17T10:27:34.336Z,99986.80
2022-10-17T10:30:48.224Z,99987.80
2022-10-17T10:33:58.077Z,99989.00
2022-10-17T10:37:17.196Z,99990.20
2022-10-17T10:40:32.059Z,99988.00
2022-10-17T10:43:45.034Z,99986.40
2022-10-17T10:47:09.308Z,99981.20
2022-10-17T10:50:33.408Z,99988.60
2022-10-17T10:53:53.679Z,99987.40
2022-10-17T10:57:06.613Z,99986.40
2022-10-17T11:00:22.382Z,99983.80
2022-10-17T11:03:36.163Z,99984.20
2022-10-17T11:06:47.832Z,99990.80
2022-10-17T11:10:04.380Z,99985.00
2022-10-17T11:13:21.910Z,99989.80
2022-10-17T11:16:38.403Z,99982.80
2022-10-17T11:19:57.657Z,99979.40
2022-10-17T11:23:21.617Z,99978.40
2022-10-17T11:26:33.762Z,99978.00
2022-10-17T11:29:47.459Z,99978.60
2022-10-17T11:33:02.066Z,99971.40
2022-10-17T11:36:13.768Z,99978.20
2022-10-17T11:39:29.108Z,99979.20
2022-10-17T11:42:46.041Z,99974.80
2022-10-17T11:46:02.236Z,99974.80
2022-10-17T11:49:20.586Z,99968.20
2022-10-17T11:52:55.960Z,99966.80
2022-10-17T11:56:05.316Z,99970.00
2022-10-17T11:59:55.821Z,99963.40
2022-10-17T12:03:19.871Z,99969.60
2022-10-17T12:06:53.405Z,99965.20
2022-10-17T12:10:18.846Z,99961.60
2022-10-17T12:13:56.534Z,99957.00
2022-10-17T12:17:05.520Z,99957.00
2022-10-17T12:20:36.295Z,99954.40
2022-10-17T12:23:52.887Z,99954.60
2022-10-17T12:27:20.993Z,99949.80
2022-10-17T12:30:31.129Z,99940.80
2022-10-17T12:33:49.680Z,99943.00
2022-10-17T12:36:57.792Z,99939.40
2022-10-17T12:40:26.297Z,99940.80
2022-10-17T12:47:41.973Z,99942.40
2022-10-17T12:51:34.175Z,99940.40
2022-10-17T12:54:53.567Z,99935.80
2022-10-17T12:58:18.089Z,99940.80
2022-10-17T13:01:33.411Z,99939.00
2022-10-17T13:04:42.194Z,99941.60
2022-10-17T13:07:53.269Z,99934.60
2022-10-17T13:11:02.942Z,99933.60
2022-10-17T13:14:18.007Z,99935.00
2022-10-17T13:17:32.093Z,99938.60
2022-10-17T13:20:40.458Z,99930.00
2022-10-17T13:23:50.970Z,99931.60
2022-10-17T13:26:59.362Z,99925.80
2022-10-17T13:30:32.082Z,99924.40
2022-10-17T13:33:42.705Z,99933.00
2022-10-17T13:36:52.681Z,99934.00
2022-10-17T13:40:11.337Z,99931.20
2022-10-17T13:43:28.782Z,99926.40
2022-10-17T13:46:40.658Z,99929.20
2022-10-17T13:49:51.601Z,99930.40
2022-10-17T13:53:26.289Z,99928.20
2022-10-17T13:56:34.469Z,99926.40
2022-10-17T13:59:48.011Z,99924.40
2022-10-17T14:02:56.122Z,99921.00
2022-10-17T14:06:17.037Z,99923.00
2022-10-17T14:09:29.637Z,99919.20
2022-10-17T14:12:38.084Z,99912.40
2022-10-17T14:15:51.059Z,99912.00
2022-10-17T14:19:00.243Z,99914.00
2022-10-17T14:22:29.509Z,99917.20
2022-10-17T14:25:40.847Z,99916.40
2022-10-17T14:29:04.341Z,99918.80
2022-10-17T14:32:17.198Z,99921.60
2022-10-17T14:35:42.209Z,99914.00
2022-10-17T14:38:56.777Z,99921.20
2022-10-17T14:42:04.775Z,99917.00
2022-10-17T14:45:23.816Z,99916.80
2022-10-17T14:48:34.103Z,99913.20
2022-10-17T14:51:56.498Z,99907.40
2022-10-17T14:55:25.822Z,99913.60
2022-10-17T14:58:35.222Z,99913.80
2022-10-17T15:01:42.186Z,99919.40
2022-10-17T15:04:50.611Z,99915.00
2022-10-17T15:07:58.613Z,99913.00
2022-10-17T15:11:06.438Z,99917.00
2022-10-17T15:14:14.394Z,99922.80
2022-10-17T15:17:25.299Z,99921.20
2022-10-17T15:20:35.044Z,99921.20
2022-10-17T15:23:42.545Z,99920.60
2022-10-17T15:26:50.927Z,99923.40
2022-10-17T15:29:58.789Z,99927.60
2022-10-17T15:33:07.660Z,99929.40
2022-10-17T15:36:27.478Z,99928.80
2022-10-17T15:39:35.349Z,99936.40
2022-10-17T15:42:43.214Z,99934.40
2022-10-17T15:45:51.571Z,99937.40
2022-10-17T15:49:03.087Z,99944.00
2022-10-17T15:52:13.063Z,99948.80
2022-10-17T15:55:21.703Z,99945.20
2022-10-17T15:58:34.541Z,99944.20
2022-10-17T16:01:44.854Z,99944.20
2022-10-17T16:04:55.016Z,99948.40
2022-10-17T16:08:02.864Z,99941.40
2022-10-17T16:11:16.542Z,99940.80
2022-10-17T16:14:24.652Z,99945.80
2022-10-17T16:17:32.900Z,99947.00
2022-10-17T16:20:41.014Z,99942.80
2022-10-17T16:23:49.199Z,99949.60
2022-10-17T16:26:57.235Z,99949.00
2022-10-17T16:30:07.091Z,99951.80
2022-10-17T16:33:13.940Z,99950.80
2022-10-17T16:36:22.576Z,99959.40
2022-10-17T16:39:30.507Z,99963.60
2022-10-17T16:42:38.577Z,99956.20
2022-10-17T16:45:46.771Z,99962.40
2022-10-17T16:48:55.180Z,99964.40
2022-10-17T16:52:03.093Z,99965.40
2022-10-17T16:55:12.931Z,99959.60
2022-10-17T16:58:19.468Z,99965.40
2022-10-17T17:01:29.888Z,99967.40
2022-10-17T17:04:37.920Z,99966.80
2022-10-17T17:07:48.115Z,99972.00
2022-10-17T17:10:55.963Z,99969.80
2022-10-17T17:14:05.693Z,99972.60
2022-10-17T17:17:24.405Z,99972.60
2022-10-17T17:20:42.394Z,99972.60
2022-10-17T17:23:50.572Z,99968.20
2022-10-17T17:26:59.678Z,99969.60
2022-10-17T17:30:09.206Z,99971.60
2022-10-17T17:33:17.080Z,99965.80
2022-10-17T17:36:27.864Z,99970.20
2022-10-17T17:39:35.815Z,99969.00
2022-10-17T17:42:44.130Z,99966.80
2022-10-17T17:45:52.112Z,99967.20
2022-10-17T17:49:03.079Z,99970.20
2022-10-17T17:52:11.014Z,99968.40
2022-10-17T17:55:19.503Z,99971.60
2022-10-17T17:58:27.412Z,99969.40
2022-10-17T18:01:39.654Z,99968.40
2022-10-17T18:04:47.744Z,99966.80
2022-10-17T18:07:55.893Z,99966.60
2022-10-17T18:11:04.543Z,99959.20
2022-10-17T18:14:16.075Z,99962.60
2022-10-17T18:17:24.331Z,99962.80
2022-10-17T18:20:32.848Z,99963.80
2022-10-17T18:23:43.446Z,99960.80
2022-10-17T18:26:54.548Z,99963.80
2022-10-17T18:30:02.458Z,99965.40
2022-10-17T18:33:10.559Z,99960.20
2022-10-17T18:36:19.913Z,99965.40
2022-10-17T18:39:28.240Z,99965.00
2022-10-17T18:42:36.137Z,99954.80
2022-10-17T18:45:44.335Z,99958.60
2022-10-17T18:48:53.598Z,99951.80
2022-10-17T18:52:01.758Z,99953.80
2022-10-17T18:55:11.847Z,99955.80
2022-10-17T18:58:21.721Z,99954.80
2022-10-17T19:01:28.998Z,99953.60
2022-10-17T19:04:37.122Z,99950.00
2022-10-17T19:07:44.830Z,99950.60
2022-10-17T19:10:52.881Z,99956.00
2022-10-17T19:14:03.975Z,99957.60
2022-10-17T19:17:11.983Z,99951.20
2022-10-17T19:20:20.275Z,99954.60
2022-10-17T19:23:28.526Z,99953.80
2022-10-17T19:26:39.981Z,99960.20
2022-10-17T19:29:49.687Z,99963.20
2022-10-17T19:32:57.636Z,99965.00
2022-10-17T19:36:09.485Z,99958.80
2022-10-17T19:39:20.843Z,99956.00
2022-10-17T19:42:29.204Z,99958.40
2022-10-17T19:45:37.243Z,99956.80
2022-10-17T19:48:45.661Z,99959.00
2022-10-17T19:51:53.869Z,99956.60
2022-10-17T19:55:01.823Z,99954.40
2022-10-17T19:58:10.265Z,99958.20
2022-10-17T20:01:26.573Z,99956.20
2022-10-17T20:04:34.746Z,99956.20
2022-10-17T20:07:43.019Z,99958.40
2022-10-17T20:10:51.011Z,99959.00
2022-10-17T20:14:00.884Z,99957.60
2022-10-17T20:17:07.024Z,99961.40
2022-10-17T20:20:15.467Z,99964.80
2022-10-17T20:23:23.629Z,99961.20
2022-10-17T20:26:38.096Z,99959.60
2022-10-17T20:29:46.767Z,99956.20
2022-10-17T20:32:55.441Z,99957.40
2022-10-17T20:36:05.314Z,99956.60
2022-10-17T20:39:16.816Z,99960.20
2022-10-17T20:42:27.117Z,99957.40
2022-10-17T20:45:50.968Z,99956.40
2022-10-17T20:48:59.744Z,99955.60
2022-10-17T20:52:07.631Z,99950.80
2022-10-17T20:55:15.560Z,99953.80
2022-10-17T20:58:23.549Z,99949.20
2022-10-17T21:01:33.449Z,99953.40
2022-10-17T21:04:46.334Z,99954.60
2022-10-17T21:07:55.020Z,99954.00
2022-10-17T21:11:18.416Z,99953.20
2022-10-17T21:14:27.572Z,99951.20
2022-10-17T21:17:36.246Z,99953.40
2022-10-17T21:20:44.043Z,99953.80
2022-10-17T21:23:55.013Z,99954.80
2022-10-17T21:27:02.856Z,99957.80
2022-10-17T21:30:12.868Z,99958.00
2022-10-17T21:33:20.975Z,99957.40
2022-10-17T21:36:30.678Z,99960.20
2022-10-17T21:39:38.660Z,99957.60
2022-10-17T21:42:46.484Z,99955.80
2022-10-17T21:45:54.352Z,99961.00
2022-10-17T21:49:03.609Z,99954.60
2022-10-17T21:52:11.687Z,99953.20
2022-10-17T21:55:20.208Z,99945.00
2022-10-17T21:58:28.589Z,99944.00
2022-10-17T22:01:41.663Z,99941.40
2022-10-17T22:04:49.601Z,99931.60
2022-10-17T22:07:57.812Z,99930.40
2022-10-17T22:11:11.615Z,99932.00
2022-10-17T22:14:22.797Z,99932.80
2022-10-17T22:17:30.841Z,99930.80
2022-10-17T22:20:40.038Z,99930.40
2022-10-17T22:23:55.235Z,99931.20
2022-10-17T22:27:03.490Z,99930.20
2022-10-17T22:30:14.096Z,99925.80
2022-10-17T22:33:22.414Z,99926.80
2022-10-17T22:36:30.728Z,99921.80
2022-10-17T22:39:39.163Z,99923.40
2022-10-17T22:42:47.150Z,99920.60
2022-10-17T22:46:00.714Z,99922.00
2022-10-17T22:49:08.938Z,99920.00
2022-10-17T22:52:17.340Z,99917.20
2022-10-17T22:55:25.137Z,99919.20
2022-10-17T22:58:37.461Z,99916.80
2022-10-17T23:01:45.851Z,99913.80
2022-10-17T23:04:54.370Z,99916.80
2022-10-17T23:08:02.297Z,99906.80
2022-10-17T23:14:22.562Z,99900.00
2022-10-17T23:17:30.634Z,99898.00
2022-10-17T23:20:39.091Z,99896.40
2022-10-17T23:23:47.149Z,99895.60
2022-10-17T23:26:55.459Z,99887.80
2022-10-17T23:30:03.396Z,99891.60
2022-10-17T23:33:14.663Z,99887.60
2022-10-17T23:36:25.428Z,99889.40
2022-10-17T23:39:33.243Z,99882.80
2022-10-17T23:42:41.491Z,99881.20
2022-10-17T23:45:49.736Z,99876.60
2022-10-17T23:48:57.649Z,99877.40
2022-10-17T23:52:05.741Z,99877.00
2022-10-17T23:55:14.822Z,99877.80
2022-10-17T23:58:22.960Z,99874.20
